createdAt,value
2022-12-19T00:01:58.509Z,99353.75
2022-12-19T00:04:26.310Z,99351.06
2022-12-19T00:06:54.114Z,99357.81
2022-12-19T00:09:21.814Z,99343.38
2022-12-19T00:11:49.583Z,99340.88
2022-12-19T00:14:18.845Z,99335.44
2022-12-19T00:16:46.766Z,99328.34
2022-12-19T00:19:15.635Z,99337.84
2022-12-19T00:21:43.312Z,99331.69
2022-12-19T00:24:15.368Z,99331.31
2022-12-19T00:26:49.463Z,99322.13
2022-12-19T00:29:18.563Z,99300.72
2022-12-19T00:31:46.322Z,99267.94
2022-12-19T00:34:14.036Z,99336.78
2022-12-19T00:36:41.701Z,99331.91
2022-12-19T00:39:10.240Z,99329.06
2022-12-19T00:41:41.576Z,99328.50
2022-12-19T00:44:12.297Z,99319.97
2022-12-19T00:46:41.333Z,99321.41
2022-12-19T00:49:09.345Z,99323.53
2022-12-19T00:51:38.255Z,99326.25
2022-12-19T00:54:07.259Z,99318.56
2022-12-19T00:56:37.746Z,99304.81
2022-12-19T00:59:06.274Z,99311.53
2022-12-19T01:01:36.335Z,99308.94
2022-12-19T01:07:01.713Z,99342.19
2022-12-19T01:09:30.683Z,99338.88
2022-12-19T01:12:16.000Z,99325.97
2022-12-19T01:14:43.663Z,99317.09
2022-12-19T01:17:11.432Z,99336.34
2022-12-19T01:19:44.376Z,99343.59
2022-12-19T01:22:12.647Z,99337.41
2022-12-19T01:24:40.807Z,99336.25
2022-12-19T01:27:08.520Z,99335.75
2022-12-19T01:29:38.889Z,99337.09
2022-12-19T01:32:20.387Z,99324.78
2022-12-19T01:34:49.514Z,99319.44
2022-12-19T01:37:17.200Z,99320.94
2022-12-19T01:39:44.980Z,99316.06
2022-12-19T01:42:16.525Z,99307.03
2022-12-19T01:45:28.924Z,99321.41
2022-12-19T01:48:12.486Z,99315.91
2022-12-19T01:51:01.016Z,99319.91
2022-12-19T01:53:34.472Z,99324.78
2022-12-19T01:56:09.526Z,99322.22
2022-12-19T01:58:39.296Z,99312.81
2022-12-19T02:01:07.243Z,99315.69
2022-12-19T02:03:38.460Z,99322.28
2022-12-19T02:06:09.353Z,99304.59
2022-12-19T02:08:38.357Z,99331.75
2022-12-19T02:11:06.350Z,99326.94
2022-12-19T02:13:34.771Z,99315.91
2022-12-19T02:16:10.769Z,99319.44
2022-12-19T02:18:45.041Z,99320.66
2022-12-19T02:21:30.615Z,99318.13
2022-12-19T02:24:26.940Z,99324.66
2022-12-19T02:27:03.124Z,99331.75
2022-12-19T02:30:07.104Z,99325.38
2022-12-19T02:32:44.903Z,99326.25
2022-12-19T02:35:21.403Z,99318.13
2022-12-19T02:37:54.088Z,99305.41
2022-12-19T02:40:26.239Z,99315.91
2022-12-19T02:42:58.875Z,99329.06
2022-12-19T02:45:30.813Z,99328.25
2022-12-19T02:48:05.763Z,99327.44
2022-12-19T02:50:41.130Z,99325.09
2022-12-19T02:53:11.104Z,99317.53
2022-12-19T02:55:49.145Z,99307.75
2022-12-19T02:58:50.081Z,99327.75
2022-12-19T03:01:30.228Z,99335.44
2022-12-19T03:04:15.562Z,99323.56
2022-12-19T03:06:50.128Z,99340.91
2022-12-19T03:09:26.787Z,99319.25
2022-12-19T03:12:05.655Z,99312.47
2022-12-19T03:14:34.894Z,99285.34
2022-12-19T03:17:07.259Z,99292.56
2022-12-19T03:19:39.708Z,99284.44
2022-12-19T03:22:08.646Z,99287.72
2022-12-19T03:24:36.564Z,99284.00
2022-12-19T03:27:09.642Z,99260.28
2022-12-19T03:29:40.095Z,99278.66
2022-12-19T03:32:14.945Z,99277.47
2022-12-19T03:34:48.284Z,99267.25
2022-12-19T03:37:19.269Z,99294.41
2022-12-19T03:39:50.664Z,99299.53
2022-12-19T03:42:37.696Z,99301.53
2022-12-19T03:45:07.664Z,99299.69
2022-12-19T03:47:39.429Z,99313.47
2022-12-19T03:50:10.299Z,99299.53
2022-12-19T03:52:46.791Z,99288.41
2022-12-19T03:55:18.879Z,99242.00
2022-12-19T03:57:50.541Z,99235.78
2022-12-19T04:00:19.808Z,99205.09
2022-12-19T04:02:52.161Z,99245.03
2022-12-19T04:05:24.203Z,99228.69
2022-12-19T04:07:55.264Z,99210.72
2022-12-19T04:10:26.028Z,99188.53
2022-12-19T04:12:59.043Z,99273.81
2022-12-19T04:15:36.069Z,99301.50
2022-12-19T04:18:06.507Z,99288.03
2022-12-19T04:20:40.410Z,99300.81
2022-12-19T04:23:13.799Z,99313.34
2022-12-19T04:25:46.279Z,99286.41
2022-12-19T04:28:21.324Z,99286.88
2022-12-19T04:30:50.693Z,99264.47
2022-12-19T04:33:18.468Z,99279.66
2022-12-19T04:35:47.506Z,99280.72
2022-12-19T04:38:15.403Z,99268.19
2022-12-19T04:40:43.190Z,99262.25
2022-12-19T04:43:10.895Z,99230.94
2022-12-19T04:45:38.701Z,99277.69
2022-12-19T04:48:08.044Z,99270.41
2022-12-19T04:50:36.731Z,99278.19
2022-12-19T04:53:06.059Z,99289.91
2022-12-19T04:55:33.819Z,99271.91
2022-12-19T04:58:06.239Z,99314.31
2022-12-19T05:00:35.142Z,99298.06
2022-12-19T05:03:02.924Z,99293.91
2022-12-19T05:05:31.107Z,99316.63
2022-12-19T05:07:58.792Z,99298.88
2022-12-19T05:10:27.838Z,99269.28
2022-12-19T05:12:55.600Z,99274.97
2022-12-19T05:15:23.455Z,99275.19
2022-12-19T05:17:51.116Z,99260.56
2022-12-19T05:20:19.071Z,99261.38
2022-12-19T05:22:46.760Z,99240.25
2022-12-19T05:25:14.537Z,99252.31
2022-12-19T05:27:43.599Z,99250.00
2022-12-19T05:30:12.337Z,99242.09
2022-12-19T05:32:40.045Z,99246.75
2022-12-19T05:35:08.451Z,99259.06
2022-12-19T05:37:36.160Z,99268.56
2022-12-19T05:40:03.851Z,99265.44
2022-12-19T05:42:31.493Z,99270.09
2022-12-19T05:45:00.485Z,99261.63
2022-12-19T05:47:28.155Z,99252.66
2022-12-19T05:49:55.884Z,99257.78
2022-12-19T05:52:24.672Z,99265.34
2022-12-19T05:54:52.381Z,99252.78
2022-12-19T05:57:20.038Z,99246.28
2022-12-19T05:59:47.738Z,99245.38
2022-12-19T06:02:16.874Z,99243.75
2022-12-19T06:04:44.606Z,99244.44
2022-12-19T06:07:14.350Z,99253.97
2022-12-19T06:09:45.555Z,99253.25
2022-12-19T06:12:13.249Z,99246.06
2022-12-19T06:14:40.986Z,99276.38
2022-12-19T06:17:08.711Z,99261.53
2022-12-19T06:19:37.731Z,99244.56
2022-12-19T06:22:05.711Z,99263.38
2022-12-19T06:24:33.401Z,99262.56
2022-12-19T06:27:01.135Z,99253.16
2022-12-19T06:29:28.831Z,99259.53
2022-12-19T06:31:56.730Z,99256.50
2022-12-19T06:34:54.920Z,99260.47
2022-12-19T06:37:14.135Z,99269.28
2022-12-19T06:39:41.772Z,99260.94
2022-12-19T06:42:24.442Z,99252.47
2022-12-19T06:44:54.184Z,99257.22
2022-12-19T06:47:23.480Z,99253.38
2022-12-19T06:49:51.265Z,99255.13
2022-12-19T06:52:20.419Z,99254.09
2022-12-19T06:54:48.143Z,99252.09
2022-12-19T06:57:15.820Z,99254.44
2022-12-19T06:59:43.491Z,99252.22
2022-12-19T07:02:22.982Z,99255.34
2022-12-19T07:04:53.612Z,99245.47
2022-12-19T07:07:22.642Z,99247.34
2022-12-19T07:09:50.410Z,99236.31
2022-12-19T07:12:18.085Z,99247.09
2022-12-19T07:14:50.232Z,99238.84
2022-12-19T07:17:21.872Z,99238.84
2022-12-19T07:19:49.627Z,99242.66
2022-12-19T07:22:17.710Z,99245.66
2022-12-19T07:24:47.102Z,99256.47
2022-12-19T07:27:14.912Z,99240.69
2022-12-19T07:29:42.536Z,99244.19
2022-12-19T07:32:10.222Z,99238.91
2022-12-19T07:34:37.885Z,99246.00
2022-12-19T07:37:06.771Z,99240.66
2022-12-19T07:39:34.530Z,99223.00
2022-12-19T07:42:03.655Z,99220.44
2022-12-19T07:44:31.483Z,99219.00
2022-12-19T07:46:59.221Z,99211.81
2022-12-19T07:49:26.910Z,99213.81
2022-12-19T07:51:54.607Z,99220.16
2022-12-19T07:54:22.270Z,99220.44
2022-12-19T07:56:49.976Z,99225.97
2022-12-19T07:59:20.173Z,99220.44
2022-12-19T08:02:04.355Z,99231.13
2022-12-19T08:04:32.264Z,99225.50
2022-12-19T08:06:59.937Z,99226.91
2022-12-19T08:09:28.338Z,99225.69
2022-12-19T08:11:56.352Z,99213.09
2022-12-19T08:14:25.587Z,99207.41
2022-12-19T08:17:19.885Z,99210.78
2022-12-19T08:19:40.851Z,99214.72
2022-12-19T08:22:08.559Z,99222.66
2022-12-19T08:24:36.534Z,99224.47
2022-12-19T08:27:04.324Z,99221.19
2022-12-19T08:29:33.698Z,99230.50
2022-12-19T08:32:01.328Z,99233.25
2022-12-19T08:34:28.996Z,99232.19
2022-12-19T08:36:56.856Z,99223.38
2022-12-19T08:39:24.568Z,99231.31
2022-12-19T08:41:52.306Z,99229.50
2022-12-19T08:44:19.965Z,99230.66
2022-12-19T08:46:50.557Z,99227.41
2022-12-19T08:49:18.865Z,99232.44
2022-12-19T08:51:46.955Z,99224.16
2022-12-19T08:54:14.658Z,99223.09
2022-12-19T08:56:46.302Z,99219.78
2022-12-19T08:59:15.862Z,99222.41
2022-12-19T09:01:54.253Z,99211.13
2022-12-19T09:05:26.454Z,99213.19
2022-12-19T09:07:10.119Z,99222.03
2022-12-19T09:09:37.827Z,99222.28
2022-12-19T09:12:05.664Z,99222.28
2022-12-19T09:14:34.821Z,99222.28
2022-12-19T09:17:04.850Z,99226.97
2022-12-19T09:19:32.764Z,99228.13
2022-12-19T09:22:00.608Z,99226.97
2022-12-19T09:24:28.592Z,99238.03
2022-12-19T09:26:56.242Z,99231.19
2022-12-19T09:29:23.968Z,99227.66
2022-12-19T09:31:56.634Z,99233.97
2022-12-19T09:34:34.880Z,99240.81
2022-12-19T09:37:06.458Z,99234.53
2022-12-19T09:39:35.127Z,99227.97
2022-12-19T09:42:18.243Z,99224.53
2022-12-19T09:44:59.410Z,99232.91
2022-12-19T09:47:30.718Z,99220.00
2022-12-19T09:50:01.220Z,99222.38
2022-12-19T09:52:33.758Z,99226.66
2022-12-19T09:55:06.763Z,99218.44
2022-12-19T09:57:43.224Z,99206.34
2022-12-19T10:00:14.384Z,99216.91
2022-12-19T10:02:46.834Z,99219.25
2022-12-19T10:05:52.333Z,99223.78
2022-12-19T10:08:18.685Z,99209.50
2022-12-19T10:12:40.720Z,99212.25
2022-12-19T10:14:04.138Z,99214.69
2022-12-19T10:16:56.327Z,99210.16
2022-12-19T10:19:42.157Z,99207.97
2022-12-19T10:22:24.407Z,99208.03
2022-12-19T10:25:09.809Z,99219.31
2022-12-19T10:27:58.885Z,99209.03
2022-12-19T10:30:31.790Z,99200.91
2022-12-19T10:33:07.673Z,99199.16
2022-12-19T10:35:44.127Z,99206.50
2022-12-19T10:38:28.362Z,99205.16
2022-12-19T10:41:11.348Z,99202.97
2022-12-19T10:43:48.215Z,99202.88
2022-12-19T10:46:20.944Z,99201.63
2022-12-19T10:48:51.795Z,99196.66
2022-12-19T10:51:24.800Z,99191.50
2022-12-19T10:53:58.025Z,99196.53
2022-12-19T10:56:31.682Z,99188.53
2022-12-19T10:59:03.221Z,99199.59
2022-12-19T11:01:36.043Z,99195.22
2022-12-19T11:04:22.483Z,99182.44
2022-12-19T11:06:52.371Z,99168.06
2022-12-19T11:09:38.801Z,99160.59
2022-12-19T11:16:44.061Z,99146.59
2022-12-19T11:20:29.201Z,99144.50
2022-12-19T11:27:16.207Z,99129.59
2022-12-19T11:29:29.802Z,99131.03
2022-12-19T11:29:34.224Z,99132.34
2022-12-19T11:30:09.513Z,99138.22
2022-12-19T11:32:42.769Z,99137.97
2022-12-19T11:35:21.017Z,99131.84
2022-12-19T11:37:56.146Z,99134.03
2022-12-19T11:40:33.755Z,99142.66
2022-12-19T11:46:03.895Z,99119.31
2022-12-19T11:48:39.472Z,99114.47
2022-12-19T11:51:17.283Z,99104.28
2022-12-19T11:53:52.607Z,99098.09
2022-12-19T11:56:24.196Z,99104.91
2022-12-19T11:58:59.026Z,99102.22
2022-12-19T12:01:43.136Z,99090.44
2022-12-19T12:04:45.118Z,99090.22
2022-12-19T12:07:42.339Z,99087.66
2022-12-19T12:13:26.909Z,99075.94
2022-12-19T12:20:31.324Z,99081.09
2022-12-19T12:28:46.575Z,99084.34
2022-12-19T12:31:08.294Z,99045.84
2022-12-19T12:31:14.422Z,99074.06
2022-12-19T12:31:17.624Z,99060.41
2022-12-19T12:31:41.327Z,99057.38
2022-12-19T12:32:04.343Z,99049.06
2022-12-19T12:35:51.086Z,99040.16
2022-12-19T12:39:41.209Z,99027.34
2022-12-19T12:42:24.108Z,99026.00
2022-12-19T12:44:56.428Z,99020.97
2022-12-19T12:47:26.089Z,99027.72
2022-12-19T12:49:58.519Z,99037.72
2022-12-19T12:52:33.794Z,99048.19
2022-12-19T12:55:04.040Z,99059.97
2022-12-19T12:57:37.827Z,99069.16
2022-12-19T13:00:24.017Z,99062.72
2022-12-19T13:02:55.789Z,99043.91
2022-12-19T13:05:39.683Z,99024.00
2022-12-19T13:08:35.749Z,99030.78
2022-12-19T13:11:06.442Z,99028.94
2022-12-19T13:13:52.120Z,99012.22
2022-12-19T13:16:50.170Z,99001.47
2022-12-19T13:19:27.468Z,98983.19
2022-12-19T13:22:18.443Z,98996.63
2022-12-19T13:24:47.960Z,99003.13
2022-12-19T13:27:39.272Z,98999.91
2022-12-19T13:30:20.631Z,99013.38
2022-12-19T13:33:12.052Z,99007.44
2022-12-19T13:38:58.028Z,99013.06
2022-12-19T13:39:48.340Z,99016.59
2022-12-19T13:41:46.969Z,99036.47
2022-12-19T13:44:15.230Z,99038.13
2022-12-19T13:46:44.653Z,99030.09
2022-12-19T13:49:16.174Z,99029.56
2022-12-19T13:51:48.225Z,99031.69
2022-12-19T13:54:22.920Z,99027.38
2022-12-19T13:56:51.280Z,99020.38
2022-12-19T13:59:20.236Z,99008.81
2022-12-19T14:01:48.251Z,99018.50
2022-12-19T14:04:28.163Z,99011.22
2022-12-19T14:07:01.249Z,99013.94
2022-12-19T14:11:27.070Z,99009.34
2022-12-19T14:13:57.555Z,99009.59
2022-12-19T14:15:33.877Z,99007.47
2022-12-19T14:18:43.289Z,99004.22
2022-12-19T14:22:07.243Z,99009.59
2022-12-19T14:23:43.689Z,99004.22
2022-12-19T14:28:19.582Z,98997.22
2022-12-19T14:29:13.542Z,98994.00
2022-12-19T14:32:23.966Z,98991.31
2022-12-19T14:35:29.529Z,98993.72
2022-12-19T14:38:12.705Z,98988.06
2022-12-19T14:40:24.825Z,98995.59
2022-12-19T14:43:57.812Z,99006.63
2022-12-19T14:54:13.315Z,99021.72
2022-12-19T14:54:13.499Z,99006.38
2022-12-19T14:54:26.181Z,98995.06
2022-12-19T14:56:19.742Z,98989.94
2022-12-19T14:58:53.273Z,98983.78
2022-12-19T15:01:24.829Z,98993.72
2022-12-19T15:04:48.887Z,98988.59
2022-12-19T15:07:08.583Z,98992.63
2022-12-19T15:11:08.134Z,98994.53
2022-12-19T15:14:48.422Z,98998.28
2022-12-19T15:15:46.157Z,98997.22
2022-12-19T15:18:22.123Z,98991.28
2022-12-19T15:20:50.059Z,98990.75
2022-12-19T15:23:21.930Z,99000.44
2022-12-19T15:26:07.645Z,98999.88
2022-12-19T15:28:40.276Z,98992.38
2022-12-19T15:31:23.354Z,98975.41
2022-12-19T15:34:32.260Z,98989.94
2022-12-19T15:36:38.923Z,98995.56
2022-12-19T15:39:06.545Z,99002.03
2022-12-19T15:41:34.277Z,99002.03
2022-12-19T15:44:08.206Z,99006.91
2022-12-19T15:46:41.304Z,98997.22
2022-12-19T15:49:16.439Z,98993.72
2022-12-19T15:51:44.164Z,98991.28
2022-12-19T15:56:59.583Z,98986.97
2022-12-19T15:59:36.476Z,98979.69
2022-12-19T16:02:16.969Z,98982.13
2022-12-19T16:04:46.115Z,98973.81
2022-12-19T16:07:17.035Z,98975.66
2022-12-19T16:09:44.749Z,98960.34
2022-12-19T16:12:15.311Z,98963.81
2022-12-19T16:14:43.236Z,98969.47
2022-12-19T16:17:16.213Z,98969.19
2022-12-19T16:19:43.879Z,98969.19
2022-12-19T16:22:19.328Z,98970.81
2022-12-19T16:24:47.369Z,98970.81
2022-12-19T16:27:23.411Z,98967.28
2022-12-19T16:29:52.034Z,98969.72
2022-12-19T16:32:23.911Z,98963.81
2022-12-19T16:34:52.291Z,98953.06
2022-12-19T16:37:20.104Z,98946.88
2022-12-19T16:39:47.811Z,98932.88
2022-12-19T16:42:17.328Z,98937.44
2022-12-19T16:44:47.369Z,98943.34
2022-12-19T16:47:17.759Z,98951.97
2022-12-19T16:49:46.932Z,98948.19
2022-12-19T16:52:14.661Z,98939.59
2022-12-19T16:54:42.629Z,98944.97
2022-12-19T16:57:20.336Z,98943.38
2022-12-19T16:59:49.465Z,98931.50
2022-12-19T17:02:40.292Z,98930.44
2022-12-19T17:05:16.869Z,98925.03
2022-12-19T17:07:44.839Z,98919.13
2022-12-19T17:10:13.092Z,98922.34
2022-12-19T17:12:41.802Z,98923.16
2022-12-19T17:15:19.669Z,98933.66
2022-12-19T17:17:48.781Z,98924.50
2022-12-19T17:20:20.581Z,98921.81
2022-12-19T17:22:48.669Z,98914.84
2022-12-19T17:25:20.205Z,98925.06
2022-12-19T17:27:48.269Z,98923.97
2022-12-19T17:30:16.787Z,98923.72
2022-12-19T17:32:45.629Z,98929.88
2022-12-19T17:35:27.548Z,98928.25
2022-12-19T17:37:59.176Z,98932.03
2022-12-19T17:40:29.785Z,98927.75
2022-12-19T17:42:58.690Z,98928.28
2022-12-19T17:45:28.386Z,98918.59
2022-12-19T17:48:02.542Z,98932.03
2022-12-19T17:50:38.167Z,98935.78
2022-12-19T17:53:06.453Z,98934.47
2022-12-19T17:55:34.423Z,98933.91
2022-12-19T17:58:02.141Z,98920.19
2022-12-19T18:00:33.585Z,98920.75
2022-12-19T18:03:04.977Z,98913.19
2022-12-19T18:05:37.112Z,98923.41
2022-12-19T18:08:07.708Z,98926.66
2022-12-19T18:10:35.449Z,98930.69
2022-12-19T18:13:04.393Z,98926.63
2022-12-19T18:15:32.248Z,98938.47
2022-12-19T18:17:59.996Z,98933.91
2022-12-19T18:20:32.144Z,98943.34
2022-12-19T18:23:02.190Z,98942.78
2022-12-19T18:25:32.340Z,98954.63
2022-12-19T18:28:00.111Z,98953.00
2022-12-19T18:30:27.823Z,98946.00
2022-12-19T18:32:58.763Z,98952.19
2022-12-19T18:35:31.676Z,98955.16
2022-12-19T18:38:03.286Z,98944.38
2022-12-19T18:40:32.129Z,98942.78
2022-12-19T18:43:00.266Z,98950.34
2022-12-19T18:45:36.063Z,98949.75
2022-12-19T18:48:07.886Z,98947.63
2022-12-19T18:50:35.912Z,98944.91
2022-12-19T18:53:11.650Z,98945.47
2022-12-19T18:55:39.341Z,98947.06
2022-12-19T18:58:07.272Z,98955.16
2022-12-19T19:00:36.129Z,98961.63
2022-12-19T19:03:06.415Z,98964.25
2022-12-19T19:05:36.665Z,98964.00
2022-12-19T19:08:16.283Z,98972.84
2022-12-19T19:10:44.968Z,98965.81
2022-12-19T19:13:13.265Z,98980.63
2022-12-19T19:15:48.167Z,98973.88
2022-12-19T19:18:20.715Z,98965.88
2022-12-19T19:20:55.724Z,98955.66
2022-12-19T19:23:34.761Z,98958.31
2022-12-19T19:26:02.670Z,98949.69
2022-12-19T19:28:30.809Z,98944.31
2022-12-19T19:31:01.654Z,98941.63
2022-12-19T19:33:33.783Z,98934.38
2022-12-19T19:36:11.664Z,98935.16
2022-12-19T19:38:44.177Z,98933.03
2022-12-19T19:41:12.593Z,98930.88
2022-12-19T19:43:40.572Z,98926.84
2022-12-19T19:46:08.381Z,98927.66
2022-12-19T19:48:37.235Z,98932.47
2022-12-19T19:51:05.263Z,98924.41
2022-12-19T19:53:35.993Z,98927.09
2022-12-19T19:56:05.406Z,98929.25
2022-12-19T19:58:33.272Z,98924.41
2022-12-19T20:01:01.173Z,98929.81
2022-12-19T20:03:29.207Z,98934.09
2022-12-19T20:06:00.812Z,98935.16
2022-12-19T20:08:33.612Z,98931.66
2022-12-19T20:11:10.909Z,98929.78
2022-12-19T20:13:39.436Z,98928.69
2022-12-19T20:16:09.211Z,98928.69
2022-12-19T20:18:38.453Z,98936.78
2022-12-19T20:21:12.710Z,98931.88
2022-12-19T20:23:42.444Z,98932.47
2022-12-19T20:26:12.816Z,98922.00
2022-12-19T20:28:47.880Z,98923.88
2022-12-19T20:31:17.638Z,98929.22
2022-12-19T20:33:46.330Z,98927.59
2022-12-19T20:36:15.374Z,98921.72
2022-12-19T20:38:43.617Z,98933.00
2022-12-19T20:41:13.033Z,98935.66
2022-12-19T20:43:41.413Z,98937.03
2022-12-19T20:46:11.612Z,98924.66
2022-12-19T20:48:39.756Z,98918.50
2022-12-19T20:51:08.634Z,98912.28
2022-12-19T20:53:37.743Z,98907.97
2022-12-19T20:56:07.393Z,98912.00
2022-12-19T20:58:38.073Z,98912.28
2022-12-19T21:01:07.779Z,98914.44
2022-12-19T21:03:36.359Z,98916.84
2022-12-19T21:06:04.860Z,98925.97
2022-12-19T21:08:33.137Z,98921.19
2022-12-19T21:11:01.887Z,98925.47
2022-12-19T21:13:30.092Z,98916.34
2022-12-19T21:16:01.997Z,98916.91
2022-12-19T21:18:30.465Z,98911.50
2022-12-19T21:20:58.181Z,98916.03
2022-12-19T21:23:26.627Z,98914.69
2022-12-19T21:25:58.747Z,98919.00
2022-12-19T21:28:26.645Z,98918.47
2022-12-19T21:31:00.850Z,98923.88
2022-12-19T21:33:29.172Z,98919.84
2022-12-19T21:35:56.992Z,98909.91
2022-12-19T21:38:25.459Z,98919.03
2022-12-19T21:40:53.285Z,98921.44
2022-12-19T21:43:21.032Z,98928.72
2022-12-19T21:45:48.787Z,98915.53
2022-12-19T21:48:18.046Z,98915.81
2022-12-19T21:50:45.899Z,98917.22
2022-12-19T21:53:13.580Z,98919.63
2022-12-19T21:55:41.335Z,98921.22
2022-12-19T21:58:08.973Z,98917.50
2022-12-19T22:00:36.780Z,98915.31
2022-12-19T22:03:20.095Z,98905.38
2022-12-19T22:05:49.283Z,98912.06
2022-12-19T22:08:17.126Z,98903.50
2022-12-19T22:10:44.839Z,98906.75
2022-12-19T22:13:12.553Z,98903.75
2022-12-19T22:15:40.384Z,98906.19
2022-12-19T22:18:08.529Z,98905.09
2022-12-19T22:20:38.703Z,98901.88
2022-12-19T22:23:13.069Z,98900.78
2022-12-19T22:25:41.985Z,98895.41
2022-12-19T22:28:09.857Z,98888.44
2022-12-19T22:30:38.852Z,98891.69
2022-12-19T22:33:06.813Z,98887.88
2022-12-19T22:35:37.736Z,98883.28
2022-12-19T22:38:07.216Z,98874.72
2022-12-19T22:40:35.762Z,98885.19
2022-12-19T22:43:03.534Z,98890.03
2022-12-19T22:45:31.592Z,98897.00
2022-12-19T22:48:00.005Z,98903.47
2022-12-19T22:50:30.101Z,98878.19
2022-12-19T22:52:57.941Z,98884.66
2022-12-19T22:55:27.054Z,98875.00
2022-12-19T22:57:55.925Z,98881.47
2022-12-19T23:00:24.005Z,98886.84
2022-12-19T23:02:53.330Z,98874.47
2022-12-19T23:05:21.366Z,98884.38
2022-12-19T23:07:49.106Z,98903.50
2022-12-19T23:10:17.385Z,98904.84
2022-12-19T23:12:46.942Z,98873.91
2022-12-19T23:15:15.008Z,98871.50
2022-12-19T23:17:42.913Z,98891.66
2022-12-19T23:20:11.198Z,98879.84
2022-12-19T23:22:39.035Z,98885.22
2022-12-19T23:25:08.328Z,98887.38
2022-12-19T23:27:37.112Z,98877.16
2022-12-19T23:30:07.603Z,98870.69
2022-12-19T23:32:35.381Z,98873.41
2022-12-19T23:35:03.166Z,98870.19
2022-12-19T23:37:31.004Z,98877.72
2022-12-19T23:39:58.838Z,98870.19
2022-12-19T23:42:26.539Z,98871.28
2022-12-19T23:44:54.314Z,98865.88
2022-12-19T23:47:23.460Z,98864.81
2022-12-19T23:49:51.205Z,98870.19
2022-12-19T23:52:19.021Z,98864.28
2022-12-19T23:54:47.835Z,98871.25
2022-12-19T23:57:16.790Z,98863.19
2022-12-19T23:59:45.815Z,98866.97
